Edgewater Terrace, Illinois
Current Conditions -  °F | °C
As of 6:15 PM on Monday 20 Oct 2014 (Local Time) from KC75 Reporting Station
Scattered Clouds Scattered Clouds  
Wind Chill: 59°   Ceiling: Unl
Heat Index: 59°   Visibility: 10mi
Dew Point: 42°   Wind: 0mph
Humidity: 53%   Direction: NA
Pressure: 29.94"   Gusts: NA
Location:  40.915°N, 89.5303°W
Report Text: KC75 202315Z AUTO 00000KT 10SM SCT060 15/06 A2994 RMK AO2 T01510056
Loading
Personal Weather Stations






























Interactive Weather Map
Tropical Storm Tracking
New forecast layout! Learn more

10-Day Weather Forecast

Advertisements
Track Severe Weather on mobile